INFORMACIÓN METAR y TAF
METAR FOR EDDN
ADDS - METARS form results

(0855 UTC 25 August 2019)
Data provider http://aviationweather.gov/metar/data/
 
METAR text: EDDN 250850Z VRB03KT CAVOK 25/17 Q1020 NOSIG
Conditions at: EDDN (NUERNBERG , DE) observed 0850 UTC 25 August 2019
Temperature: 25.0°C (77°F)
Dewpoint: 17.0°C (63°F) [RH = 61%]
Pressure (altimeter): 30.12 inches Hg (1020.0 mb)
Winds: variable direction winds at 3 MPH (3 knots; 1.5 m/s)
Visibility: 6 or more miles (10+ km)
Ceiling: ceiling and visibility are OK
Clouds: unknown
Weather: no significant weather observed at this time

METAR text: EDDN 250820Z 12004KT 070V160 CAVOK 24/19 Q1020 NOSIG
Conditions at: EDDN (NUERNBERG , DE) observed 0820 UTC 25 August 2019
Temperature: 24.0°C (75°F)
Dewpoint: 19.0°C (66°F) [RH = 74%]
Pressure (altimeter): 30.12 inches Hg (1020.0 mb)
Winds: from the ESE (120 degrees) at 5 MPH (4 knots; 2.1 m/s)
Visibility: 6 or more miles (10+ km)
Ceiling: ceiling and visibility are OK
Clouds: unknown
Weather: no significant weather observed at this time

Forecast for: EDDN (NUERNBERG , DE)
Text: TAF EDDN 250500Z 2506/2606 VRB03KT 9999 FEW040
Forecast period: 0600 UTC 25 August 2019 to 0600 UTC 26 August 2019
Forecast type: FROM: standard forecast or significant change
Winds: variable direction winds at 3 MPH (3 knots; 1.5 m/s)
Visibility: 6 or more miles 10+ km)
Ceiling: at least 12,000 feet AGL
Clouds: few clouds at 4000 feet AGL
Weather: no significant weather forecast for this period
Text: PROB40
Forecast period: 1500 to 2000 UTC 25 August 2019
Forecast type: TEMPORARY: The following changes expected for less than half the time period
Winds: from the N (360 degrees) at 17 MPH (15 knots; 7.7 m/s)
Visibility: missing
Ceiling: 3000 feet AGL
Clouds: scattered clouds at 2000 feet AGL
broken clouds at 3000 feet AGL
Weather: TSRA  (rain associated with thunderstorm(s))
Text: TEMPO 2515/2520 36015KT TSRA SCT020 BKN030CB
Forecast period: 0300 to 0600 UTC 26 August 2019
Forecast type: TEMPORARY: The following changes expected for less than half the time period
Visibility: 0.93 miles (1.50 km)
Ceiling: unknown
Clouds: missing
Weather: BCFG  (patches of fog)

 MAPA DE AEROPUERTO

 INFORMACIÓN DE PISTA
Pista 10 Longitud 8858 ft Ancho 148 ft
Elevación 1022 ft Umbral desplazado 0 ft Rumbo de pista 99
Pista 28 Longitud 8858 ft Ancho 148 ft
Elevación 1046 ft Umbral desplazado 0 ft Rumbo de pista 279

 FRECUANCIAS DEL AEROPUERTO
Tipo AFIS Nombre MUNCHEN IN Frecuencia 120.65 MHZ
Tipo ATIS Nombre ATIS Frecuencia 123.075 MHZ
Tipo DIR Nombre DIR Frecuencia 119.475 MHZ
Tipo GND Nombre GND Frecuencia 118.1 MHZ
Tipo RDR Nombre MUNCHEN RA Frecuencia 118.975 MHZ
Tipo TWR Nombre TWR Frecuencia 118.3 MHZ

 RADIO AYUDAS DEL AEROPUERTO
Tipo DME Nombre Nurnberg Frecuencia 113100 KHZ
Tipo NDB Nombre Rothenbach Frecuencia 415 KHZ



Powered by Virtual Airlines Manager [v2.6.2]